Time,TemperatureF,DewpointF,PressureIn,WindDirection,WindDirectionDegrees,WindSpeedMPH,WindSpeedGustMPH,Humidity,HourlyPrecipIn,Conditions,Clouds,dailyrainin,SoftwareType,DateUTC
2014-12-29 00:00:00,32.0,28.0,29.95,SSW,206,0.0,0.0,85,0.00,CLR,,0.00,WeatherDisplay:10.37,2014-12-28 23:00:00,
2014-12-29 00:05:00,31.9,27.6,29.95,South,187,0.0,0.0,84,0.00,CLR,,0.00,WeatherDisplay:10.37,2014-12-28 23:05:00,
2014-12-29 00:10:00,31.9,27.7,29.95,South,187,0.0,0.0,84,0.00,CLR,,0.00,WeatherDisplay:10.37,2014-12-28 23:10:00,
2014-12-29 00:20:00,31.8,27.6,29.95,SSW,198,0.0,0.0,84,0.00,CLR,,0.00,WeatherDisplay:10.37,2014-12-28 23:20:00,
2014-12-29 00:30:00,31.8,27.5,29.95,WSW,240,0.0,3.0,84,0.00,CLR,,0.00,WeatherDisplay:10.37,2014-12-28 23:30:00,
2014-12-29 00:40:00,31.6,27.4,29.95,WNW,302,0.0,2.0,84,0.00,CLR,,0.00,WeatherDisplay:10.37,2014-12-28 23:40:00,
2014-12-29 00:50:00,31.8,22.1,29.95,WNW,298,0.0,5.0,67,0.00,CLR,,0.00,WeatherDisplay:10.37,2014-12-28 23:50:00,
2014-12-29 01:00:00,34.6,17.8,29.96,NNW,331,2.0,5.0,50,0.00,CLR,,0.00,WeatherDisplay:10.37,2014-12-29 00:00:00,
2014-12-29 01:05:00,35.5,14.1,29.96,NNW,328,2.0,4.0,41,0.00,CLR,,0.00,WeatherDisplay:10.37,2014-12-29 00:05:00,
2014-12-29 01:10:00,36.4,15.4,29.96,NW,322,2.0,5.0,42,0.00,CLR,,0.00,WeatherDisplay:10.37,2014-12-29 00:10:00,
2014-12-29 01:20:00,37.0,13.1,29.96,NW,317,1.0,2.0,37,0.00,CLR,,0.00,WeatherDisplay:10.37,2014-12-29 00:20:00,
2014-12-29 01:30:00,37.2,10.7,29.97,NW,305,2.0,5.0,33,0.00,CLR,,0.00,WeatherDisplay:10.37,2014-12-29 00:30:00,
2014-12-29 01:40:00,38.2,7.9,29.97,NW,325,2.0,7.0,28,0.00,CLR,,0.00,WeatherDisplay:10.37,2014-12-29 00:40:00,
2014-12-29 01:50:00,39.4,6.4,29.98,NW,312,3.0,9.0,25,0.00,CLR,,0.00,WeatherDisplay:10.37,2014-12-29 00:50:00,
2014-12-29 02:00:00,40.5,5.5,29.99,NW,324,3.0,9.0,23,0.00,CLR,,0.00,WeatherDisplay:10.37,2014-12-29 01:00:00,
2014-12-29 02:05:00,40.7,4.8,29.99,NW,304,3.0,9.0,22,0.00,CLR,,0.00,WeatherDisplay:10.37,2014-12-29 01:05:00,
2014-12-29 02:10:00,41.0,5.0,29.99,WNW,303,3.0,9.0,22,0.00,CLR,,0.00,WeatherDisplay:10.37,2014-12-29 01:10:00,
2014-12-29 02:20:00,41.4,4.3,29.99,NW,315,3.0,10.0,21,0.00,CLR,,0.00,WeatherDisplay:10.37,2014-12-29 01:20:00,
2014-12-29 02:30:00,41.4,4.3,30.00,NW,326,3.0,8.0,21,0.00,CLR,,0.00,WeatherDisplay:10.37,2014-12-29 01:30:00,
2014-12-29 02:40:00,41.5,3.4,30.00,NNW,347,3.0,10.0,20,0.00,CLR,,0.00,WeatherDisplay:10.37,2014-12-29 01:40:00,
2014-12-29 02:50:00,41.4,2.2,30.01,NW,310,3.0,10.0,19,0.00,CLR,,0.00,WeatherDisplay:10.37,2014-12-29 01:50:00,
2014-12-29 03:00:00,41.5,2.3,30.02,WNW,301,5.0,9.0,19,0.00,CLR,,0.00,WeatherDisplay:10.37,2014-12-29 02:00:00,
2014-12-29 03:05:00,41.6,2.3,30.02,WNW,303,5.0,10.0,19,0.00,CLR,,0.00,WeatherDisplay:10.37,2014-12-29 02:05:00,
2014-12-29 03:10:00,41.5,2.3,30.02,NW,319,3.0,8.0,19,0.00,CLR,,0.00,WeatherDisplay:10.37,2014-12-29 02:10:00,
2014-12-29 03:20:00,41.5,3.4,30.03,NW,306,5.0,8.0,20,0.00,CLR,,0.00,WeatherDisplay:10.37,2014-12-29 02:20:00,
2014-12-29 03:30:00,41.4,3.2,30.03,NW,324,3.0,10.0,20,0.00,CLR,,0.00,WeatherDisplay:10.37,2014-12-29 02:30:00,
2014-12-29 03:40:00,41.2,2.0,30.03,NW,310,5.0,10.0,19,0.00,CLR,,0.00,WeatherDisplay:10.37,2014-12-29 02:40:00,
2014-12-29 03:50:00,41.4,3.2,30.04,NW,325,3.0,6.0,20,0.00,CLR,,0.00,WeatherDisplay:10.37,2014-12-29 02:50:00,
2014-12-29 04:00:00,40.8,2.8,30.05,NW,326,2.0,7.0,20,0.00,CLR,,0.00,WeatherDisplay:10.37,2014-12-29 03:00:00,
2014-12-29 04:05:00,40.6,3.7,30.05,WNW,297,2.0,6.0,21,0.00,CLR,,0.00,WeatherDisplay:10.37,2014-12-29 03:05:00,
2014-12-29 04:10:00,40.5,2.5,30.05,WNW,296,2.0,5.0,20,0.00,CLR,,0.00,WeatherDisplay:10.37,2014-12-29 03:10:00,
2014-12-29 04:20:00,40.4,2.4,30.05,NNW,328,2.0,8.0,20,0.00,CLR,,0.00,WeatherDisplay:10.37,2014-12-29 03:20:00,
2014-12-29 04:30:00,40.5,2.5,30.05,NW,318,3.0,5.0,20,0.00,CLR,,0.00,WeatherDisplay:10.37,2014-12-29 03:30:00,
2014-12-29 04:40:00,40.5,1.4,30.05,NNW,328,3.0,9.0,19,0.00,CLR,,0.00,WeatherDisplay:10.37,2014-12-29 03:40:00,
2014-12-29 04:50:00,40.7,0.4,30.05,NW,318,5.0,12.0,18,0.00,CLR,,0.00,WeatherDisplay:10.37,2014-12-29 03:50:00,
2014-12-29 05:00:00,41.1,0.7,30.06,NW,317,5.0,12.0,18,0.00,CLR,,0.00,WeatherDisplay:10.37,2014-12-29 04:00:00,
2014-12-29 05:05:00,41.2,0.8,30.06,NW,320,5.0,7.0,18,0.00,CLR,,0.00,WeatherDisplay:10.37,2014-12-29 04:05:00,
2014-12-29 05:10:00,41.0,0.7,30.06,NW,326,3.0,9.0,18,0.00,CLR,,0.00,WeatherDisplay:10.37,2014-12-29 04:10:00,
2014-12-29 05:20:00,40.8,0.5,30.06,NW,318,3.0,7.0,18,0.00,CLR,,0.00,WeatherDisplay:10.37,2014-12-29 04:20:00,
2014-12-29 05:30:00,40.6,-0.9,30.07,NW,314,3.0,10.0,17,0.00,CLR,,0.00,WeatherDisplay:10.37,2014-12-29 04:30:00,
2014-12-29 05:40:00,40.7,0.4,30.07,NW,314,3.0,8.0,18,0.00,CLR,,0.00,WeatherDisplay:10.37,2014-12-29 04:40:00,
2014-12-29 05:50:00,40.5,0.2,30.07,NW,315,2.0,8.0,18,0.00,CLR,,0.00,WeatherDisplay:10.37,2014-12-29 04:50:00,
2014-12-29 06:00:00,40.3,-1.2,30.08,NW,314,2.0,6.0,17,0.00,CLR,,0.00,WeatherDisplay:10.37,2014-12-29 05:00:00,
2014-12-29 06:05:00,40.3,0.1,30.08,NW,314,2.0,6.0,18,0.00,CLR,,0.00,WeatherDisplay:10.37,2014-12-29 05:05:00,
2014-12-29 06:10:00,40.3,0.1,30.08,NW,325,2.0,5.0,18,0.00,CLR,,0.00,WeatherDisplay:10.37,2014-12-29 05:10:00,
2014-12-29 06:20:00,40.1,-1.3,30.08,NW,313,2.0,9.0,17,0.00,CLR,,0.00,WeatherDisplay:10.37,2014-12-29 05:20:00,
2014-12-29 06:30:00,40.3,-2.4,30.09,NNW,328,3.0,9.0,16,0.00,CLR,,0.00,WeatherDisplay:10.37,2014-12-29 05:30:00,
2014-12-29 06:40:00,40.5,-2.3,30.09,NW,320,2.0,6.0,16,0.00,CLR,,0.00,WeatherDisplay:10.37,2014-12-29 05:40:00,
2014-12-29 06:50:00,40.5,-1.0,30.10,WNW,303,2.0,5.0,17,0.00,CLR,,0.00,WeatherDisplay:10.37,2014-12-29 05:50:00,
2014-12-29 07:00:00,40.5,-2.3,30.10,NW,325,2.0,7.0,16,0.00,CLR,,0.00,WeatherDisplay:10.37,2014-12-29 06:00:00,
2014-12-29 07:05:00,40.5,-2.3,30.10,NW,319,2.0,6.0,16,0.00,CLR,,0.00,WeatherDisplay:10.37,2014-12-29 06:05:00,
2014-12-29 07:10:00,40.5,-2.3,30.10,NW,310,2.0,3.0,16,0.00,CLR,,0.00,WeatherDisplay:10.37,2014-12-29 06:10:00,
2014-12-29 07:20:00,40.3,-2.4,30.11,WNW,302,2.0,7.0,16,0.00,CLR,,0.00,WeatherDisplay:10.37,2014-12-29 06:20:00,
2014-12-29 07:30:00,40.5,-3.7,30.11,NW,314,3.0,7.0,15,0.00,CLR,,0.00,WeatherDisplay:10.37,2014-12-29 06:30:00,
2014-12-29 07:40:00,40.6,-2.2,30.11,NW,317,3.0,6.0,16,0.00,CLR,,0.00,WeatherDisplay:10.37,2014-12-29 06:40:00,
2014-12-29 07:50:00,40.6,-2.2,30.11,NW,321,3.0,8.0,16,0.00,CLR,,0.00,WeatherDisplay:10.37,2014-12-29 06:50:00,
2014-12-29 07:55:00,40.6,-2.2,30.11,NW,323,3.0,8.0,16,0.00,CLR,,0.00,WeatherDisplay:10.37,2014-12-29 06:55:00,
2014-12-29 08:05:00,40.6,-2.2,30.12,NW,314,5.0,6.0,16,0.00,CLR,,0.00,WeatherDisplay:10.37,2014-12-29 07:05:00,
2014-12-29 08:10:00,40.6,-2.2,30.12,NW,322,2.0,5.0,16,0.00,CLR,,0.00,WeatherDisplay:10.37,2014-12-29 07:10:00,
2014-12-29 08:20:00,40.5,-2.3,30.13,NW,324,2.0,5.0,16,0.00,CLR,,0.00,WeatherDisplay:10.37,2014-12-29 07:20:00,
2014-12-29 08:30:00,39.9,-1.4,30.14,North,350,1.0,4.0,17,0.00,CLR,,0.00,WeatherDisplay:10.37,2014-12-29 07:30:00,
2014-12-29 08:40:00,39.9,-0.2,30.14,North,354,1.0,2.0,18,0.00,CLR,,0.00,WeatherDisplay:10.37,2014-12-29 07:40:00,
2014-12-29 08:50:00,39.7,-1.6,30.14,NNE,18,1.0,5.0,17,0.00,CLR,,0.00,WeatherDisplay:10.37,2014-12-29 07:50:00,
2014-12-29 09:00:00,39.9,-0.2,30.15,NNW,333,1.0,4.0,18,0.00,CLR,,0.00,WeatherDisplay:10.37,2014-12-29 08:00:00,
2014-12-29 09:05:00,39.9,2.0,30.15,North,354,1.0,2.0,20,0.00,CLR,,0.00,WeatherDisplay:10.37,2014-12-29 08:05:00,
2014-12-29 09:10:00,39.7,0.8,30.15,NNE,21,0.0,2.0,19,0.00,CLR,,0.00,WeatherDisplay:10.37,2014-12-29 08:10:00,
2014-12-29 09:20:00,39.6,0.6,30.15,NW,326,2.0,6.0,19,0.00,CLR,,0.00,WeatherDisplay:10.37,2014-12-29 08:20:00,
2014-12-29 09:30:00,40.0,-0.2,30.16,NNW,344,2.0,5.0,18,0.00,CLR,,0.00,WeatherDisplay:10.37,2014-12-29 08:30:00,
2014-12-29 09:40:00,40.4,0.1,30.16,NW,325,2.0,5.0,18,0.00,CLR,,0.00,WeatherDisplay:10.37,2014-12-29 08:40:00,
2014-12-29 09:50:00,40.6,0.4,30.17,NNW,332,2.0,5.0,18,0.00,CLR,,0.00,WeatherDisplay:10.37,2014-12-29 08:50:00,
2014-12-29 10:00:00,41.2,0.8,30.17,NNW,327,2.0,6.0,18,0.00,CLR,,0.00,WeatherDisplay:10.37,2014-12-29 09:00:00,
2014-12-29 10:05:00,41.5,1.1,30.17,NW,319,2.0,5.0,18,0.00,CLR,,0.00,WeatherDisplay:10.37,2014-12-29 09:05:00,
2014-12-29 10:10:00,41.7,1.2,30.17,NW,317,2.0,5.0,18,0.00,CLR,,0.00,WeatherDisplay:10.37,2014-12-29 09:10:00,
2014-12-29 10:20:00,42.3,1.7,30.17,NNW,345,2.0,5.0,18,0.00,CLR,,0.00,WeatherDisplay:10.37,2014-12-29 09:20:00,
2014-12-29 10:30:00,42.6,2.0,30.17,NW,321,1.0,3.0,18,0.00,CLR,,0.00,WeatherDisplay:10.37,2014-12-29 09:30:00,
2014-12-29 10:40:00,43.0,1.1,30.17,NNE,16,2.0,5.0,17,0.00,CLR,,0.00,WeatherDisplay:10.37,2014-12-29 09:40:00,
2014-12-29 10:50:00,43.2,2.5,30.18,North,359,1.0,5.0,18,0.00,CLR,,0.00,WeatherDisplay:10.37,2014-12-29 09:50:00,
2014-12-29 11:00:00,43.7,0.3,30.18,NNW,333,2.0,6.0,16,0.00,CLR,,0.00,WeatherDisplay:10.37,2014-12-29 10:00:00,
2014-12-29 11:05:00,44.1,1.9,30.18,NNW,330,2.0,5.0,17,0.00,CLR,,0.00,WeatherDisplay:10.37,2014-12-29 10:05:00,
2014-12-29 11:10:00,44.2,0.8,30.18,NE,44,2.0,6.0,16,0.00,CLR,,0.00,WeatherDisplay:10.37,2014-12-29 10:10:00,
2014-12-29 11:20:00,44.6,1.1,30.18,NNE,25,2.0,6.0,16,0.00,CLR,,0.00,WeatherDisplay:10.37,2014-12-29 10:20:00,
2014-12-29 11:30:00,44.8,1.2,30.18,NW,316,2.0,5.0,16,0.00,CLR,,0.00,WeatherDisplay:10.37,2014-12-29 10:30:00,
2014-12-29 11:40:00,44.8,2.5,30.18,NW,305,2.0,7.0,17,0.00,CLR,,0.00,WeatherDisplay:10.37,2014-12-29 10:40:00,